Time;durP1;ratioP1;P1;durP2;ratioP2;P2;SDS_P1;SDS_P2;PMS_P1;PMS_P2;Temp;Humidity;BMP_temperature;BMP_pressure;BME280_temperature;BME280_humidity;BME280_pressure;Samples;Min_cycle;Max_cycle;Signal;HPM_P1;HPM_P2
2023/03/24 00:00:14;;;;;;;3.47;2.57;;;11.90;99.90;;;;;;4968107;28;20210;-76
2023/03/24 00:02:41;;;;;;;3.53;2.70;;;11.90;99.90;;;;;;4979178;28;20233;-75
2023/03/24 00:05:12;;;;;;;4.30;2.33;;;11.90;99.90;;;;;;4970459;28;20244;-76
2023/03/24 00:07:38;;;;;;;3.97;2.20;;;11.90;99.90;;;;;;4970233;28;20174;-75
2023/03/24 00:10:08;;;;;;;4.03;2.13;;;11.80;99.90;;;;;;4971929;28;20293;-76
2023/03/24 00:12:37;;;;;;;6.63;2.40;;;11.80;99.90;;;;;;4972064;28;20724;-76
2023/03/24 00:15:04;;;;;;;4.57;2.40;;;11.80;99.90;;;;;;4966997;28;20225;-76
2023/03/24 00:17:30;;;;;;;3.63;2.00;;;11.80;99.90;;;;;;4976219;28;20297;-76
2023/03/24 00:19:56;;;;;;;5.33;2.50;;;11.80;99.90;;;;;;4970008;28;20736;-77
2023/03/24 00:22:22;;;;;;;5.70;2.57;;;11.80;99.90;;;;;;4972260;28;20544;-76
2023/03/24 00:24:48;;;;;;;3.20;2.30;;;11.80;99.90;;;;;;4971339;28;20206;-77
2023/03/24 00:27:16;;;;;;;3.13;2.60;;;11.80;99.90;;;;;;4970771;28;20261;-76
2023/03/24 00:29:42;;;;;;;2.80;2.30;;;11.80;99.90;;;;;;4979035;28;20216;-76
2023/03/24 00:32:08;;;;;;;4.20;2.70;;;11.80;99.90;;;;;;4970616;28;20206;-76
2023/03/24 00:34:37;;;;;;;3.17;2.27;;;11.80;99.90;;;;;;4971397;28;20233;-75
2023/03/24 00:37:04;;;;;;;2.53;2.20;;;11.80;99.90;;;;;;4970992;28;20214;-77
2023/03/24 00:39:30;;;;;;;4.17;1.90;;;11.80;99.90;;;;;;4971665;28;20217;-76
2023/03/24 00:41:57;;;;;;;5.40;2.20;;;11.80;99.90;;;;;;4970411;28;20206;-76
2023/03/24 00:44:24;;;;;;;4.47;2.47;;;11.80;99.90;;;;;;4970350;28;20222;-75
2023/03/24 00:46:57;;;;;;;3.50;2.37;;;11.70;99.90;;;;;;4971436;28;20744;-75
2023/03/24 00:49:42;;;;;;;2.87;2.17;;;11.70;99.90;;;;;;4974550;28;20206;-75
2023/03/24 00:52:32;;;;;;;2.87;2.60;;;11.70;99.90;;;;;;4985722;28;20586;-75
2023/03/24 00:55:00;;;;;;;4.57;2.33;;;11.70;99.90;;;;;;4984773;28;20198;-75
2023/03/24 00:57:28;;;;;;;2.80;2.03;;;11.70;99.90;;;;;;4970282;28;20350;-76
2023/03/24 00:59:55;;;;;;;5.77;2.30;;;11.70;99.90;;;;;;4969553;28;20206;-74
2023/03/24 01:02:23;;;;;;;3.90;2.50;;;11.70;99.90;;;;;;4967762;28;20210;-75
2023/03/24 01:04:58;;;;;;;3.63;1.97;;;11.70;99.90;;;;;;4970793;28;20218;-75
2023/03/24 01:07:27;;;;;;;4.63;2.10;;;11.70;99.90;;;;;;4972039;28;20176;-75
2023/03/24 01:09:59;;;;;;;4.17;2.40;;;11.70;99.90;;;;;;4969908;28;20354;-75
2023/03/24 01:12:38;;;;;;;4.80;2.60;;;11.70;99.90;;;;;;4967563;28;20207;-77
2023/03/24 01:15:12;;;;;;;2.07;1.77;;;11.70;99.90;;;;;;4969831;28;20285;-76
2023/03/24 01:17:37;;;;;;;2.73;2.30;;;11.70;99.90;;;;;;4970735;28;20214;-76
2023/03/24 01:20:07;;;;;;;2.93;2.10;;;11.70;99.90;;;;;;4969717;28;20238;-76
2023/03/24 01:22:36;;;;;;;2.83;1.90;;;11.70;99.90;;;;;;4970838;28;20178;-73
2023/03/24 01:25:03;;;;;;;4.03;2.00;;;11.70;99.90;;;;;;4971299;28;20241;-75
2023/03/24 01:27:30;;;;;;;3.20;2.23;;;11.70;99.90;;;;;;4970117;28;20621;-75
2023/03/24 01:30:04;;;;;;;2.33;1.90;;;11.70;99.90;;;;;;4968579;28;20737;-75
2023/03/24 01:32:30;;;;;;;3.80;2.20;;;11.70;99.90;;;;;;4969965;28;20193;-74
2023/03/24 01:34:56;;;;;;;3.07;1.97;;;11.80;99.90;;;;;;4974415;28;20561;-75
2023/03/24 01:37:24;;;;;;;2.63;2.10;;;11.80;99.90;;;;;;4974005;28;20171;-74
2023/03/24 01:39:50;;;;;;;2.70;2.03;;;11.70;99.90;;;;;;4972708;28;20252;-75
2023/03/24 01:42:22;;;;;;;2.80;1.83;;;11.70;99.90;;;;;;4974586;28;20608;-76
2023/03/24 01:44:50;;;;;;;3.50;2.13;;;11.80;99.90;;;;;;4974144;28;20330;-75
2023/03/24 01:47:16;;;;;;;2.83;2.23;;;11.70;99.90;;;;;;4975239;28;20870;-74
2023/03/24 01:49:55;;;;;;;4.20;1.67;;;11.70;99.90;;;;;;4972508;28;20202;-75
2023/03/24 01:52:28;;;;;;;3.33;2.00;;;11.80;99.90;;;;;;4973313;28;20208;-75
2023/03/24 01:55:01;;;;;;;2.97;2.27;;;11.70;99.90;;;;;;4972732;28;20206;-75
2023/03/24 01:57:34;;;;;;;2.60;2.20;;;11.70;99.90;;;;;;4973102;28;20269;-75
2023/03/24 02:00:06;;;;;;;2.43;2.23;;;11.80;99.90;;;;;;4967022;28;20238;-75
2023/03/24 02:02:35;;;;;;;2.40;2.10;;;11.70;99.90;;;;;;4973876;28;20700;-73
2023/03/24 02:05:04;;;;;;;2.97;2.30;;;11.80;99.90;;;;;;4969199;28;20221;-75
2023/03/24 02:07:38;;;;;;;3.00;2.40;;;11.80;99.90;;;;;;4974193;28;20177;-75
2023/03/24 02:10:12;;;;;;;5.50;2.20;;;11.80;99.90;;;;;;4987962;28;20220;-75
2023/03/24 02:12:38;;;;;;;3.20;1.97;;;11.80;99.90;;;;;;4971057;28;20798;-75
2023/03/24 02:15:07;;;;;;;3.00;2.00;;;11.80;99.90;;;;;;4973948;28;20289;-75
2023/03/24 02:17:48;;;;;;;3.97;2.33;;;11.80;99.90;;;;;;4972272;28;20229;-73
2023/03/24 02:20:48;;;;;;;3.53;2.20;;;11.80;99.90;;;;;;4973872;28;20740;-76
2023/03/24 02:23:29;;;;;;;3.23;2.20;;;11.90;99.90;;;;;;4974690;28;20194;-76
2023/03/24 02:26:27;;;;;;;2.20;1.90;;;11.90;99.90;;;;;;4976192;28;20209;-76
2023/03/24 02:29:07;;;;;;;2.70;1.87;;;11.90;99.90;;;;;;4982454;28;20628;-76
2023/03/24 02:31:35;;;;;;;3.33;2.00;;;11.90;99.90;;;;;;4977396;28;20294;-76
2023/03/24 02:34:22;;;;;;;2.63;2.20;;;11.90;99.90;;;;;;4986984;28;20221;-75
2023/03/24 02:36:50;;;;;;;3.37;2.13;;;12.00;99.90;;;;;;4973518;28;20221;-75
2023/03/24 02:39:37;;;;;;;4.53;2.17;;;12.00;99.90;;;;;;4974374;28;20622;-75
2023/03/24 02:42:14;;;;;;;2.60;2.10;;;12.00;99.90;;;;;;4972547;28;20289;-75
2023/03/24 02:45:17;;;;;;;2.90;2.20;;;12.00;99.90;;;;;;4970748;28;20210;-75
2023/03/24 02:48:08;;;;;;;2.53;2.03;;;12.00;99.90;;;;;;4968712;28;20212;-75
2023/03/24 02:51:31;;;;;;;2.53;1.93;;;12.00;99.90;;;;;;4969860;28;20198;-75
2023/03/24 02:54:11;;;;;;;3.57;2.27;;;12.10;99.90;;;;;;4969199;28;20237;-75
2023/03/24 02:56:46;;;;;;;3.67;2.20;;;12.00;99.90;;;;;;4954629;28;20301;-75
2023/03/24 02:59:20;;;;;;;5.23;2.27;;;12.00;99.90;;;;;;4959776;28;20693;-76
2023/03/24 03:01:56;;;;;;;3.27;2.57;;;12.00;99.90;;;;;;4954268;28;20231;-75
2023/03/24 03:04:31;;;;;;;4.40;2.23;;;11.90;99.90;;;;;;4959613;28;20213;-75
2023/03/24 03:07:01;;;;;;;3.93;2.20;;;11.90;99.90;;;;;;4987705;28;20205;-75
2023/03/24 03:09:28;;;;;;;4.47;2.20;;;11.90;99.90;;;;;;4972745;28;20245;-76
2023/03/24 03:11:58;;;;;;;3.77;2.37;;;11.90;99.90;;;;;;5007727;23;20624;-80
2023/03/24 03:14:35;;;;;;;4.20;2.43;;;11.80;99.90;;;;;;4990582;28;20210;-80
2023/03/24 03:17:10;;;;;;;2.63;2.20;;;11.80;99.90;;;;;;4997220;28;20226;-81
2023/03/24 03:19:49;;;;;;;2.77;2.50;;;11.80;99.90;;;;;;4996365;28;20188;-80
2023/03/24 03:22:23;;;;;;;3.53;2.33;;;11.80;99.90;;;;;;4992112;28;20716;-80
2023/03/24 03:24:53;;;;;;;6.33;2.60;;;11.80;99.90;;;;;;4991905;28;20238;-79
2023/03/24 03:27:26;;;;;;;3.50;2.70;;;11.80;99.90;;;;;;4984150;28;20816;-80
2023/03/24 03:30:20;;;;;;;6.07;2.67;;;11.80;99.90;;;;;;4992420;28;20217;-80
2023/03/24 03:33:01;;;;;;;3.57;2.07;;;11.80;99.90;;;;;;5016000;28;20214;-80
2023/03/24 03:35:47;;;;;;;4.30;2.70;;;11.70;99.90;;;;;;4999333;28;20228;-80
2023/03/24 03:38:29;;;;;;;3.03;2.40;;;11.70;99.90;;;;;;4988820;28;20297;-81
2023/03/24 03:41:02;;;;;;;5.43;2.30;;;11.70;99.90;;;;;;5004612;28;20220;-80
2023/03/24 03:43:29;;;;;;;3.63;2.30;;;11.70;99.90;;;;;;5005819;28;20216;-80
2023/03/24 03:45:55;;;;;;;4.07;2.50;;;11.70;99.90;;;;;;5016680;28;20233;-81
2023/03/24 03:48:21;;;;;;;3.00;2.40;;;11.70;99.90;;;;;;5009087;28;20229;-80
2023/03/24 03:50:47;;;;;;;3.70;2.20;;;11.70;99.90;;;;;;5010450;28;20229;-80
2023/03/24 03:53:17;;;;;;;5.47;2.23;;;11.70;99.90;;;;;;5011458;28;20206;-79
2023/03/24 03:55:44;;;;;;;6.43;2.80;;;11.80;99.90;;;;;;5011375;28;20190;-80
2023/03/24 03:58:10;;;;;;;4.30;2.57;;;11.80;99.90;;;;;;5013435;28;20184;-80
2023/03/24 04:00:36;;;;;;;5.37;2.43;;;11.70;99.90;;;;;;5012204;28;20229;-80
2023/03/24 04:03:10;;;;;;;4.03;2.80;;;11.70;99.90;;;;;;5010938;28;20240;-80
2023/03/24 04:05:44;;;;;;;3.90;2.63;;;11.70;99.90;;;;;;5010411;28;20213;-81
2023/03/24 04:08:17;;;;;;;4.90;2.70;;;11.80;99.90;;;;;;5025537;28;20200;-80
2023/03/24 04:11:05;;;;;;;4.73;2.87;;;11.80;99.90;;;;;;5010012;28;20221;-79
2023/03/24 04:14:12;;;;;;;4.77;3.13;;;11.80;99.90;;;;;;5010857;28;20181;-80
2023/03/24 04:17:04;;;;;;;5.70;3.07;;;11.80;99.90;;;;;;4993368;28;20178;-80
2023/03/24 04:19:35;;;;;;;5.23;3.17;;;11.80;99.90;;;;;;5011607;28;20241;-80
2023/03/24 04:22:11;;;;;;;4.53;3.30;;;11.80;99.90;;;;;;5014045;28;20214;-80
2023/03/24 04:24:49;;;;;;;5.17;3.10;;;11.80;99.90;;;;;;5009537;28;20229;-82
2023/03/24 04:27:26;;;;;;;4.07;3.30;;;11.90;99.90;;;;;;5008623;28;20263;-80
2023/03/24 04:30:13;;;;;;;3.97;3.17;;;11.90;99.90;;;;;;5013469;28;20208;-80
2023/03/24 04:32:57;;;;;;;4.60;3.40;;;11.90;99.90;;;;;;5011783;28;20201;-80
2023/03/24 04:35:39;;;;;;;3.50;2.73;;;11.90;99.90;;;;;;5010975;28;20197;-81
2023/03/24 04:38:13;;;;;;;4.97;3.50;;;11.90;99.90;;;;;;5012859;28;20200;-81
2023/03/24 04:40:41;;;;;;;4.27;3.50;;;11.90;99.90;;;;;;5015390;28;20213;-80
2023/03/24 04:43:12;;;;;;;3.60;3.07;;;11.90;99.90;;;;;;5029421;28;20205;-80
2023/03/24 04:45:38;;;;;;;4.83;3.80;;;11.90;99.90;;;;;;5021548;28;20241;-80
2023/03/24 04:48:07;;;;;;;5.27;3.60;;;11.90;99.90;;;;;;5015180;28;20215;-81
2023/03/24 04:50:41;;;;;;;5.53;4.07;;;12.00;99.90;;;;;;5014541;28;20209;-81
2023/03/24 04:53:08;;;;;;;4.63;3.47;;;12.00;99.90;;;;;;5006925;28;20205;-80
2023/03/24 04:55:53;;;;;;;5.00;3.17;;;12.00;99.90;;;;;;5015046;28;20556;-82
2023/03/24 04:58:21;;;;;;;5.97;3.63;;;12.00;99.90;;;;;;5018387;28;20250;-81
2023/03/24 05:00:47;;;;;;;7.25;4.25;;;12.00;99.90;;;;;;5012830;28;20413;-79
2023/03/24 05:03:15;;;;;;;6.23;4.23;;;12.10;99.90;;;;;;5004892;28;20213;-81
2023/03/24 05:05:47;;;;;;;6.07;4.03;;;12.10;99.90;;;;;;5000803;28;20233;-80
2023/03/24 05:08:13;;;;;;;5.27;3.70;;;12.10;99.90;;;;;;5002234;28;20308;-81
2023/03/24 05:10:38;;;;;;;5.77;3.73;;;12.10;99.90;;;;;;5002234;28;20700;-81
2023/03/24 05:13:05;;;;;;;6.00;3.83;;;12.10;99.90;;;;;;5015126;28;20170;-81
2023/03/24 05:15:31;;;;;;;5.57;3.73;;;12.10;99.90;;;;;;5003954;28;20300;-80
2023/03/24 05:17:58;;;;;;;4.63;3.63;;;12.10;99.90;;;;;;5004012;28;20217;-81
2023/03/24 05:20:25;;;;;;;4.15;3.75;;;12.10;99.90;;;;;;5003032;28;20077;-81
2023/03/24 05:22:51;;;;;;;5.50;3.67;;;12.10;99.90;;;;;;4994634;28;20206;-81
2023/03/24 05:25:18;;;;;;;4.87;3.27;;;12.20;99.90;;;;;;4995283;28;20320;-82
2023/03/24 05:27:44;;;;;;;6.73;3.70;;;12.20;99.90;;;;;;4996166;28;20221;-80
2023/03/24 05:30:10;;;;;;;4.23;3.50;;;12.20;99.90;;;;;;4996432;28;20201;-81
2023/03/24 05:32:36;;;;;;;6.37;3.80;;;12.20;99.90;;;;;;5000898;28;20211;-79
2023/03/24 05:35:03;;;;;;;9.23;4.33;;;12.20;99.90;;;;;;4997759;28;20205;-82
2023/03/24 05:37:28;;;;;;;5.97;3.77;;;12.20;99.90;;;;;;4993792;28;20205;-81
2023/03/24 05:39:54;;;;;;;6.43;4.17;;;12.30;99.90;;;;;;4993841;28;20214;-82
2023/03/24 05:42:20;;;;;;;8.47;4.67;;;12.30;99.90;;;;;;4995502;28;20585;-81
2023/03/24 05:44:46;;;;;;;5.60;3.70;;;12.30;99.90;;;;;;5019014;28;20220;-79
2023/03/24 05:47:14;;;;;;;5.40;3.93;;;12.30;99.90;;;;;;5013029;28;20225;-82
2023/03/24 05:49:44;;;;;;;5.60;3.40;;;12.30;99.90;;;;;;5011161;28;20189;-83
2023/03/24 05:52:11;;;;;;;3.90;3.27;;;12.30;99.90;;;;;;5011781;28;20193;-81
2023/03/24 05:54:38;;;;;;;5.10;3.60;;;12.30;99.90;;;;;;5010411;28;20229;-83
2023/03/24 05:57:06;;;;;;;5.37;3.90;;;12.30;99.90;;;;;;5007972;28;20224;-83
2023/03/24 05:59:33;;;;;;;5.83;3.40;;;12.40;99.90;;;;;;5013689;28;20268;-79
2023/03/24 06:01:58;;;;;;;4.87;3.90;;;12.40;99.90;;;;;;5017310;28;20214;-82
2023/03/24 06:04:29;;;;;;;4.20;3.27;;;12.40;99.90;;;;;;4998250;28;20255;-82
2023/03/24 06:06:57;;;;;;;6.68;4.15;;;12.40;99.90;;;;;;4997202;28;20428;-80
2023/03/24 06:09:24;;;;;;;5.63;3.47;;;12.50;99.90;;;;;;4997401;28;20202;-79
2023/03/24 06:11:50;;;;;;;10.43;4.70;;;12.50;99.90;;;;;;4995110;28;20375;-81
2023/03/24 06:14:16;;;;;;;4.53;3.73;;;12.50;99.90;;;;;;4996671;28;20261;-82
2023/03/24 06:16:41;;;;;;;5.63;3.93;;;12.50;99.90;;;;;;4997606;28;20204;-81
2023/03/24 06:19:07;;;;;;;6.70;3.63;;;12.50;99.90;;;;;;4998623;28;20197;-82
2023/03/24 06:21:33;;;;;;;4.03;3.17;;;12.60;99.90;;;;;;4997849;28;20217;-80
2023/03/24 06:23:59;;;;;;;4.53;3.50;;;12.60;99.90;;;;;;4994360;28;20221;-81
2023/03/24 06:26:29;;;;;;;4.40;3.33;;;12.70;99.90;;;;;;4992258;28;20289;-82
2023/03/24 06:28:55;;;;;;;5.10;4.03;;;12.70;99.90;;;;;;4996418;28;20288;-82
2023/03/24 06:31:22;;;;;;;6.13;3.10;;;12.80;99.90;;;;;;4995507;28;20193;-82
2023/03/24 06:33:49;;;;;;;4.57;3.70;;;12.90;99.90;;;;;;4995815;28;20206;-80
2023/03/24 06:36:15;;;;;;;6.40;3.77;;;12.90;99.90;;;;;;4995989;28;20205;-82
2023/03/24 06:38:41;;;;;;;8.53;3.43;;;12.90;99.90;;;;;;4996778;28;20696;-81
2023/03/24 06:41:06;;;;;;;4.83;3.90;;;12.90;99.90;;;;;;4991623;28;20210;-81
2023/03/24 06:43:33;;;;;;;3.73;3.30;;;12.90;99.90;;;;;;4996383;28;20611;-79
2023/03/24 06:45:59;;;;;;;5.27;3.47;;;12.90;99.90;;;;;;4993423;28;20205;-80
2023/03/24 06:48:26;;;;;;;5.23;3.37;;;12.90;99.90;;;;;;4994881;28;20699;-81
2023/03/24 06:50:52;;;;;;;5.93;3.60;;;12.90;99.90;;;;;;4994220;28;20321;-80
2023/03/24 06:53:20;;;;;;;4.73;3.47;;;13.00;99.90;;;;;;4992026;28;20692;-80
2023/03/24 06:55:47;;;;;;;4.40;3.73;;;13.00;99.90;;;;;;4992299;28;20649;-80
2023/03/24 06:58:13;;;;;;;8.27;3.90;;;13.10;99.90;;;;;;4997639;28;20181;-80
2023/03/24 07:00:40;;;;;;;4.97;3.40;;;13.10;99.90;;;;;;4996865;28;20213;-80
2023/03/24 07:03:07;;;;;;;3.63;3.27;;;13.20;99.90;;;;;;4998676;28;20585;-81
2023/03/24 07:05:43;;;;;;;4.07;3.03;;;13.20;99.90;;;;;;5002312;28;20356;-82
2023/03/24 07:08:10;;;;;;;5.30;3.50;;;13.20;99.90;;;;;;4998449;28;20209;-83
2023/03/24 07:10:39;;;;;;;6.10;3.50;;;13.20;99.90;;;;;;4999097;28;20217;-82
2023/03/24 07:13:06;;;;;;;5.57;3.90;;;13.30;99.90;;;;;;5004236;28;20174;-82
2023/03/24 07:15:32;;;;;;;5.70;3.37;;;13.40;99.90;;;;;;5001631;28;20208;-79
2023/03/24 07:17:58;;;;;;;6.47;3.47;;;13.50;99.90;;;;;;4996868;28;20565;-81
2023/03/24 07:20:24;;;;;;;4.72;3.40;;;13.50;99.90;;;;;;4999745;28;20229;-83
2023/03/24 07:22:49;;;;;;;4.85;3.42;;;13.60;99.90;;;;;;4998451;28;20233;-84
2023/03/24 07:25:18;;;;;;;4.50;3.42;;;13.80;99.90;;;;;;5002871;28;20590;-82
2023/03/24 07:27:44;;;;;;;5.03;3.20;;;13.90;99.90;;;;;;5008885;28;20202;-82
2023/03/24 07:30:11;;;;;;;3.55;2.85;;;14.10;99.90;;;;;;5007617;28;20239;-81
2023/03/24 07:32:38;;;;;;;6.35;3.50;;;14.40;99.90;;;;;;5005615;28;20672;-82
2023/03/24 07:35:06;;;;;;;4.72;3.10;;;14.80;99.90;;;;;;4995302;28;20216;-80
2023/03/24 07:37:31;;;;;;;4.05;2.90;;;15.40;99.90;;;;;;4995487;28;20186;-81
2023/03/24 07:39:57;;;;;;;3.53;2.63;;;15.50;99.90;;;;;;4997457;28;20178;-80
2023/03/24 07:42:24;;;;;;;4.28;3.00;;;15.40;99.90;;;;;;4994462;28;20206;-80
2023/03/24 07:44:50;;;;;;;4.38;3.33;;;15.10;99.90;;;;;;4992250;28;20218;-80
2023/03/24 07:47:16;;;;;;;6.20;3.50;;;15.00;99.90;;;;;;5002070;28;20288;-80
2023/03/24 07:49:42;;;;;;;3.53;2.72;;;14.70;99.90;;;;;;5008882;28;20165;-82
2023/03/24 07:52:07;;;;;;;5.15;3.17;;;14.50;99.90;;;;;;4994688;28;20196;-82
2023/03/24 07:54:33;;;;;;;4.45;3.30;;;14.50;99.90;;;;;;5001038;28;20272;-82
2023/03/24 07:57:00;;;;;;;3.42;3.08;;;14.30;99.90;;;;;;4990913;28;20237;-82
2023/03/24 07:59:26;;;;;;;3.83;3.15;;;14.20;99.90;;;;;;4985946;28;20288;-81
2023/03/24 08:01:52;;;;;;;5.30;2.97;;;14.10;99.90;;;;;;4988652;28;20213;-83
2023/03/24 08:04:18;;;;;;;4.38;3.22;;;14.00;99.90;;;;;;4992776;28;20236;-82
2023/03/24 08:06:44;;;;;;;4.22;3.15;;;14.00;99.90;;;;;;4987595;28;20212;-82
2023/03/24 08:09:10;;;;;;;5.50;3.58;;;13.90;99.90;;;;;;4981976;28;20259;-84
2023/03/24 08:11:36;;;;;;;5.28;3.35;;;13.80;99.90;;;;;;4984978;28;20218;-83
2023/03/24 08:14:02;;;;;;;4.18;3.05;;;13.80;99.90;;;;;;4992386;28;20210;-83
2023/03/24 08:16:28;;;;;;;5.93;3.35;;;13.80;99.90;;;;;;4978433;28;20645;-83
2023/03/24 08:18:57;;;;;;;5.63;3.75;;;13.80;99.90;;;;;;4979884;28;20205;-82
2023/03/24 08:21:23;;;;;;;6.72;5.30;;;13.80;99.90;;;;;;5001798;28;20264;-83
2023/03/24 08:23:49;;;;;;;5.55;4.00;;;13.80;99.90;;;;;;5000839;28;20316;-82
2023/03/24 08:26:15;;;;;;;5.70;3.83;;;13.80;99.90;;;;;;4995282;28;20232;-82
2023/03/24 08:28:41;;;;;;;7.63;3.65;;;13.70;99.90;;;;;;4997020;28;20659;-79
2023/03/24 08:31:07;;;;;;;7.53;3.87;;;13.70;99.90;;;;;;4997017;28;20201;-82
2023/03/24 08:33:33;;;;;;;4.67;3.40;;;13.60;99.90;;;;;;4996391;28;20205;-82
2023/03/24 08:35:59;;;;;;;4.47;3.58;;;13.60;99.90;;;;;;4998505;28;20229;-81
2023/03/24 08:38:29;;;;;;;4.10;3.43;;;13.60;99.90;;;;;;4997155;28;20206;-82
2023/03/24 08:41:05;;;;;;;5.27;3.53;;;13.60;99.90;;;;;;4999558;28;20224;-81
2023/03/24 08:43:33;;;;;;;6.43;3.63;;;13.60;99.90;;;;;;5001418;28;20756;-81
2023/03/24 08:46:00;;;;;;;5.33;3.67;;;13.60;99.90;;;;;;5002034;28;20263;-81
2023/03/24 08:48:28;;;;;;;5.70;3.90;;;13.50;99.90;;;;;;5000372;28;20236;-82
2023/03/24 08:50:54;;;;;;;4.27;3.87;;;13.50;99.90;;;;;;5000483;28;20213;-82
2023/03/24 08:53:20;;;;;;;5.07;3.47;;;13.60;99.90;;;;;;5000714;28;20585;-80
2023/03/24 08:55:46;;;;;;;5.73;4.00;;;13.60;99.90;;;;;;5000347;28;20209;-81
2023/03/24 08:58:19;;;;;;;4.87;3.50;;;13.70;99.90;;;;;;5002946;28;20189;-82
2023/03/24 09:00:46;;;;;;;5.82;3.85;;;13.80;99.90;;;;;;5003154;28;20217;-81
2023/03/24 09:03:17;;;;;;;5.30;3.78;;;13.90;99.90;;;;;;5010992;28;20228;-83
2023/03/24 09:05:43;;;;;;;4.68;3.30;;;13.90;99.90;;;;;;5015131;28;20352;-84
2023/03/24 09:08:11;;;;;;;5.55;3.78;;;13.90;99.90;;;;;;5014079;28;20240;-80
2023/03/24 09:10:38;;;;;;;5.93;3.78;;;14.00;99.90;;;;;;5007633;28;20220;-82
2023/03/24 09:13:04;;;;;;;4.72;3.80;;;14.10;99.90;;;;;;5010198;28;20205;-82
2023/03/24 09:15:30;;;;;;;5.13;3.97;;;14.00;99.90;;;;;;5010211;28;20606;-83
2023/03/24 09:17:55;;;;;;;5.38;3.75;;;14.10;99.90;;;;;;5014561;28;20202;-81
2023/03/24 09:20:21;;;;;;;6.60;4.35;;;14.10;99.90;;;;;;5013210;28;20217;-81
2023/03/24 09:22:47;;;;;;;6.60;4.20;;;14.10;99.90;;;;;;5012812;28;20170;-81
2023/03/24 09:25:17;;;;;;;4.80;3.50;;;14.10;99.90;;;;;;5012060;28;20244;-82
2023/03/24 09:27:43;;;;;;;6.93;4.00;;;14.20;99.90;;;;;;5008396;28;20206;-80
2023/03/24 09:30:10;;;;;;;5.20;3.58;;;14.30;99.90;;;;;;5012522;28;20261;-80
2023/03/24 09:32:36;;;;;;;6.28;3.67;;;14.40;99.90;;;;;;5012679;28;20507;-83
2023/03/24 09:35:03;;;;;;;5.72;3.28;;;14.40;99.90;;;;;;5026896;28;20256;-81
2023/03/24 09:37:30;;;;;;;4.63;3.38;;;14.60;99.90;;;;;;5005314;28;20261;-80
2023/03/24 09:39:58;;;;;;;3.97;3.50;;;14.90;99.90;;;;;;4999545;28;20760;-80
2023/03/24 09:42:29;;;;;;;6.82;3.97;;;15.30;99.90;;;;;;5000381;28;20277;-81
2023/03/24 09:44:57;;;;;;;6.03;3.42;;;15.80;99.90;;;;;;5005792;28;20286;-82
2023/03/24 09:47:29;;;;;;;5.82;2.75;;;15.90;99.90;;;;;;5017617;28;20200;-84
2023/03/24 09:49:59;;;;;;;5.47;3.38;;;16.10;99.90;;;;;;5011538;28;20600;-81
2023/03/24 09:52:32;;;;;;;3.85;3.17;;;16.30;99.90;;;;;;5012778;28;20170;-82
2023/03/24 09:55:00;;;;;;;11.52;7.07;;;16.50;99.90;;;;;;5013538;28;20209;-80
2023/03/24 09:57:48;;;;;;;5.53;3.42;;;16.60;99.90;;;;;;4998441;28;20224;-81
2023/03/24 10:00:16;;;;;;;4.75;3.35;;;16.70;99.90;;;;;;4987015;28;20210;-81
2023/03/24 10:02:43;;;;;;;5.90;3.55;;;16.80;99.90;;;;;;4998061;28;20206;-81
2023/03/24 10:05:21;;;;;;;3.97;2.50;;;16.60;99.90;;;;;;4998510;28;20213;-81
2023/03/24 10:08:16;;;;;;;5.07;3.00;;;16.40;99.90;;;;;;4995138;28;20268;-81
2023/03/24 10:11:08;;;;;;;2.92;2.55;;;16.20;99.90;;;;;;4996690;28;20213;-81
2023/03/24 10:14:03;;;;;;;3.97;2.70;;;16.20;99.90;;;;;;5001019;28;20176;-81
2023/03/24 10:16:45;;;;;;;4.05;2.75;;;16.00;99.90;;;;;;5014545;28;20187;-84
2023/03/24 10:19:29;;;;;;;5.35;2.88;;;16.20;99.90;;;;;;5012192;28;20208;-81
2023/03/24 10:22:02;;;;;;;6.82;2.85;;;16.30;99.90;;;;;;5013938;28;20210;-82
2023/03/24 10:24:48;;;;;;;5.00;2.90;;;16.30;99.90;;;;;;5010525;28;20212;-80
2023/03/24 10:27:20;;;;;;;4.63;2.45;;;16.20;99.90;;;;;;5011547;28;20208;-81
2023/03/24 10:29:48;;;;;;;3.00;2.22;;;16.10;99.90;;;;;;5016350;28;20217;-83
2023/03/24 10:32:24;;;;;;;5.75;2.72;;;16.10;99.90;;;;;;5015501;28;20205;-84
2023/03/24 10:35:00;;;;;;;3.08;2.38;;;16.30;99.90;;;;;;5012810;28;20220;-83
2023/03/24 10:37:29;;;;;;;2.97;2.17;;;16.70;99.90;;;;;;5014322;28;20165;-82
2023/03/24 10:39:55;;;;;;;4.60;2.58;;;17.10;99.90;;;;;;4997553;28;20209;-81
2023/03/24 10:42:25;;;;;;;3.30;2.20;;;17.40;99.90;;;;;;5007041;28;20217;-82
2023/03/24 10:44:51;;;;;;;3.50;2.50;;;17.60;99.90;;;;;;4999863;28;20296;-82
2023/03/24 10:47:25;;;;;;;4.95;2.83;;;17.60;99.90;;;;;;5000274;28;20244;-82
2023/03/24 10:49:55;;;;;;;4.60;2.40;;;17.40;99.90;;;;;;4997422;28;20274;-80
2023/03/24 10:52:23;;;;;;;3.35;2.60;;;17.10;99.90;;;;;;5009138;28;20197;-80
2023/03/24 10:54:58;;;;;;;3.53;2.70;;;17.00;99.90;;;;;;4995987;28;20204;-80
2023/03/24 10:57:25;;;;;;;4.55;2.70;;;16.70;99.90;;;;;;4989496;28;20235;-80
2023/03/24 10:59:59;;;;;;;5.78;2.60;;;16.60;99.90;;;;;;4993470;28;20210;-80
2023/03/24 11:02:30;;;;;;;6.10;2.95;;;16.60;99.90;;;;;;5010437;28;20691;-80
2023/03/24 11:05:18;;;;;;;3.00;2.63;;;16.50;99.90;;;;;;5012487;28;20241;-81
2023/03/24 11:07:46;;;;;;;4.78;2.67;;;16.50;99.90;;;;;;4995367;28;20201;-81
2023/03/24 11:10:17;;;;;;;3.40;2.58;;;16.50;99.90;;;;;;5002025;28;20526;-80
2023/03/24 11:13:06;;;;;;;3.92;2.70;;;16.50;99.90;;;;;;5001557;28;20205;-81
2023/03/24 11:15:36;;;;;;;4.72;2.75;;;16.60;99.90;;;;;;4999079;28;20233;-80
2023/03/24 11:18:15;;;;;;;3.63;2.30;;;16.60;99.90;;;;;;5000001;28;20221;-81
2023/03/24 11:20:49;;;;;;;4.60;2.60;;;16.70;99.90;;;;;;4998344;28;20201;-81
2023/03/24 11:23:15;;;;;;;2.65;2.45;;;16.90;99.90;;;;;;5011474;28;20316;-82
2023/03/24 11:25:43;;;;;;;3.63;2.50;;;17.30;99.90;;;;;;5007797;28;20197;-82
2023/03/24 11:28:16;;;;;;;2.67;2.17;;;17.70;99.90;;;;;;4973859;28;20175;-81
2023/03/24 11:30:48;;;;;;;8.60;2.65;;;18.10;99.90;;;;;;4973752;28;20211;-82
2023/03/24 11:33:24;;;;;;;3.50;2.92;;;18.10;99.90;;;;;;4986611;28;20210;-82
2023/03/24 11:35:50;;;;;;;3.72;2.85;;;18.10;99.90;;;;;;4980650;28;20202;-81
2023/03/24 11:38:18;;;;;;;2.97;2.40;;;18.10;99.90;;;;;;4986582;28;20256;-80
2023/03/24 11:41:01;;;;;;;3.55;2.50;;;17.90;99.90;;;;;;4988602;28;20194;-82
2023/03/24 11:43:27;;;;;;;3.83;2.50;;;17.70;99.90;;;;;;4995214;28;20174;-81
2023/03/24 11:46:06;;;;;;;3.28;2.65;;;17.80;99.90;;;;;;4994323;28;20212;-81
2023/03/24 11:48:48;;;;;;;4.22;2.45;;;17.90;99.90;;;;;;4992608;28;20202;-80
2023/03/24 11:51:30;;;;;;;3.67;2.25;;;17.90;99.90;;;;;;4994569;28;20277;-81
2023/03/24 11:53:58;;;;;;;5.25;3.72;;;18.00;99.90;;;;;;4992667;28;20208;-80
2023/03/24 11:56:32;;;;;;;4.47;2.47;;;18.10;99.90;;;;;;4993877;28;20685;-79
2023/03/24 11:59:18;;;;;;;4.07;2.50;;;18.10;99.90;;;;;;5000897;28;20296;-80
2023/03/24 12:02:07;;;;;;;5.68;3.33;;;18.00;99.90;;;;;;5000180;28;20198;-80
2023/03/24 12:05:10;;;;;;;4.43;2.72;;;17.80;99.90;;;;;;5000127;28;20269;-80
2023/03/24 12:08:00;;;;;;;7.05;2.60;;;17.70;99.90;;;;;;4996733;28;20596;-81
2023/03/24 12:10:41;;;;;;;4.78;2.72;;;17.90;99.90;;;;;;4996817;28;20263;-82
2023/03/24 12:13:11;;;;;;;3.58;3.17;;;18.00;99.90;;;;;;4998333;28;20213;-83
2023/03/24 12:16:06;;;;;;;3.50;2.38;;;18.00;99.90;;;;;;4993245;28;20572;-80
2023/03/24 12:18:33;;;;;;;4.32;2.15;;;18.00;99.90;;;;;;4991196;28;20558;-79
2023/03/24 12:21:32;;;;;;;2.70;2.30;;;17.90;99.90;;;;;;4998034;28;20228;-80
2023/03/24 12:24:04;;;;;;;3.67;2.50;;;17.70;99.90;;;;;;4998383;28;20715;-80
2023/03/24 12:26:33;;;;;;;4.45;2.47;;;17.60;99.90;;;;;;4998826;28;20706;-79
2023/03/24 12:29:25;;;;;;;5.70;2.85;;;17.40;99.90;;;;;;4993132;28;20202;-79
2023/03/24 12:31:59;;;;;;;2.30;2.10;;;17.20;99.90;;;;;;4973879;28;20697;-82
2023/03/24 12:35:10;;;;;;;2.80;2.00;;;17.10;99.90;;;;;;4971736;28;20245;-82
2023/03/24 12:37:47;;;;;;;4.43;2.45;;;17.00;99.90;;;;;;4934772;28;20219;-82
2023/03/24 12:40:52;;;;;;;2.85;1.80;;;17.00;99.90;;;;;;4954213;29;20170;-82
2023/03/24 12:43:55;;;;;;;3.28;2.20;;;16.80;99.90;;;;;;4918910;28;20252;-82
2023/03/24 12:46:54;;;;;;;3.83;2.08;;;16.90;99.90;;;;;;4987424;28;20225;-80
2023/03/24 12:49:38;;;;;;;3.05;2.00;;;16.80;99.90;;;;;;4993361;28;20209;-81
2023/03/24 12:52:25;;;;;;;2.85;2.30;;;16.80;99.90;;;;;;4984438;28;20225;-81
2023/03/24 12:55:03;;;;;;;2.95;2.22;;;16.70;99.90;;;;;;4996526;28;20285;-83
2023/03/24 12:57:36;;;;;;;4.30;2.65;;;16.70;99.90;;;;;;4996736;28;20206;-81
2023/03/24 13:00:10;;;;;;;3.30;2.00;;;16.70;99.90;;;;;;4980651;28;20202;-79
2023/03/24 13:02:51;;;;;;;3.42;2.10;;;16.60;99.90;;;;;;4971807;28;20297;-78
2023/03/24 13:05:22;;;;;;;3.10;2.40;;;16.70;99.90;;;;;;4979281;28;20214;-74
2023/03/24 13:07:52;;;;;;;7.70;2.65;;;16.70;99.90;;;;;;4987840;28;20174;-79
2023/03/24 13:10:31;;;;;;;5.80;2.83;;;16.50;99.90;;;;;;4984930;28;20214;-78
2023/03/24 13:13:17;;;;;;;2.20;1.98;;;16.40;99.90;;;;;;5014852;28;20348;-79